Scammon Bay Airport Scammon Bay US
ICAO: PACM
IATA:
Category: Medium
Scheduled Services:

Elevation: 14 ft
TransAlt. 18000 ft.

Airport Communications:
ASOS:118.425
CTAF/UNICOM:123

PACM Zoom In..

Runways:

(A) RW 10 length 3000 ft width 75 ft
---- / hdg 101

(B) RW 28 length 3000 ft width 75 ft
---- / hdg 281

Location; PACM
Day. 14 / Time. 02.56 Zulu
* Altimeter: 29.90
* Temperature: 6/° c. 42.8°f.
* Wind from: 250° Speed 09 kn.
Dewpoint: //° c.
Visibility: 10 Statute Miles.
Clouds: Few 2900 ft.

PACM 140256Z AUTO 25009KT 10SM FEW029 15/10 A2990 RMK AO2 SLP121 6//// T01500100 53002 PNO $

Going to: --> -->


Wind From 250°
Speed 09 kn.

 
 
jpsmedia worldairports.se 2020   terms of use